Mount Braddock, Pennsylvania
Current Conditions -  °F | °C
As of 1:41 PM on Saturday 20 Dec 2014 (Local Time) from KMGW Reporting Station
Scattered Clouds Scattered Clouds  
Wind Chill: 30°   Ceiling: Unl
Heat Index: 34°   Visibility: 10mi
Dew Point: 19°   Wind: 5mph
Humidity: 54%   Direction: 310°NW
Pressure: 30.21"   Gusts: NA
Location:  39.95°N, 79.65°W
Report Text: KMGW 201841Z 31004KT 10SM SCT027 01/M07 A3021 RMK AO2 T00111072
Loading
Personal Weather Stations






























Interactive Weather Map New forecast layout! Learn more

10-Day Weather Forecast

Advertisements
Track Severe Weather on mobile